Terminal Aerodrome Forecast
Issued by NWS

Home | Current Version | Previous Version | Text Only | Print | Product List | Glossary On
Versions: 1 2 3 4 5 6 7 8 9 10 11 12
000
FTUS43 KSGF 292320
TAFBBG
TAF
KBBG 292320Z 3000/3024 VRB04KT P6SM VCSH BKN035
      TEMPO 3001/3004 4SM TSRA BR BKN030CB
     FM300500 VRB03KT P6SM BKN050 PROB30 3009/3013 4SM TSRA BR
      BKN040CB
     FM301500 14006KT P6SM SCT040 PROB30 3020/3024 4SM TSRA BR
      BKN035CB=

USA.gov is the U.S. government's official web portal to all federal, state and local government web resources and services.